Time;durP1;ratioP1;P1;durP2;ratioP2;P2;SDS_P1;SDS_P2;PMS_P1;PMS_P2;Temp;Humidity;BMP_temperature;BMP_pressure;BME280_temperature;BME280_humidity;BME280_pressure;Samples;Min_cycle;Max_cycle;Signal;HPM_P1;HPM_P2
2024/02/20 00:05:26;;;;;;;41.13;22.92;;;4.10;99.90;;;;;;20524014;28;20053;-40
2024/02/20 00:15:29;;;;;;;62.70;35.60;;;3.80;99.90;;;;;;20524274;28;20057;-43
2024/02/20 00:25:34;;;;;;;49.38;27.23;;;3.50;99.90;;;;;;20520951;28;20057;-41
2024/02/20 00:35:39;;;;;;;56.88;32.63;;;3.40;99.90;;;;;;20506827;28;20124;-41
2024/02/20 00:45:40;;;;;;;43.40;25.40;;;3.40;99.90;;;;;;20522044;28;20270;-40
2024/02/20 00:55:42;;;;;;;47.33;27.15;;;3.40;99.90;;;;;;20518950;28;20083;-40
2024/02/20 01:05:44;;;;;;;50.80;28.42;;;3.40;99.90;;;;;;20525608;28;20037;-41
2024/02/20 01:15:46;;;;;;;55.10;29.88;;;3.40;99.90;;;;;;20535932;28;20164;-42
2024/02/20 01:25:48;;;;;;;35.00;19.02;;;3.50;99.90;;;;;;20538387;28;21489;-43
2024/02/20 01:35:49;;;;;;;2.58;1.50;;;3.40;99.90;;;;;;20538222;28;20128;-42
2024/02/20 01:45:51;;;;;;;0.57;0.32;;;3.40;99.90;;;;;;20534005;28;20359;-41
2024/02/20 01:55:54;;;;;;;0.50;0.10;;;3.50;99.90;;;;;;20533531;28;20132;-42
2024/02/20 02:05:58;;;;;;;0.85;0.20;;;3.60;99.90;;;;;;20535043;28;20507;-40
2024/02/20 02:16:00;;;;;;;1.13;0.40;;;3.90;99.90;;;;;;20533080;28;20247;-41
2024/02/20 02:26:05;;;;;;;0.75;0.30;;;3.80;99.90;;;;;;20533386;28;22149;-40
2024/02/20 02:36:07;;;;;;;0.63;0.35;;;3.90;99.90;;;;;;20516429;28;20201;-40
2024/02/20 02:46:12;;;;;;;0.85;0.40;;;4.20;99.90;;;;;;20529307;28;20080;-41
2024/02/20 02:56:14;;;;;;;0.70;0.30;;;4.40;99.90;;;;;;20530747;28;20155;-41
2024/02/20 03:06:16;;;;;;;0.40;0.20;;;5.00;98.70;;;;;;20530220;28;20749;-40
2024/02/20 03:16:17;;;;;;;0.20;0.10;;;5.20;99.00;;;;;;20528579;28;20125;-41
2024/02/20 03:26:19;;;;;;;0.00;0.00;;;5.30;97.70;;;;;;20532216;28;20514;-40
2024/02/20 03:36:21;;;;;;;0.00;0.00;;;5.50;97.70;;;;;;20526868;28;21058;-41
2024/02/20 03:46:23;;;;;;;0.40;0.00;;;5.80;97.70;;;;;;20528432;28;20223;-40
2024/02/20 03:56:25;;;;;;;0.13;0.00;;;5.60;98.20;;;;;;20526094;28;20065;-41
2024/02/20 04:06:28;;;;;;;0.20;0.00;;;5.40;99.50;;;;;;20523929;28;21300;-40
2024/02/20 04:16:30;;;;;;;0.63;0.00;;;4.90;99.90;;;;;;20524813;28;21180;-41
2024/02/20 04:26:32;;;;;;;0.32;0.00;;;4.50;99.90;;;;;;20524856;28;20080;-43
2024/02/20 04:36:34;;;;;;;0.05;0.00;;;4.30;99.90;;;;;;20523043;28;20119;-40
2024/02/20 04:46:35;;;;;;;1.30;0.00;;;4.10;99.90;;;;;;20523992;28;20141;-41
2024/02/20 04:56:37;;;;;;;0.10;0.00;;;3.70;99.90;;;;;;20521842;28;20208;-41
2024/02/20 05:06:39;;;;;;;0.10;0.00;;;3.20;99.90;;;;;;20525445;28;20238;-42
2024/02/20 05:16:44;;;;;;;0.75;0.00;;;2.90;99.90;;;;;;20523744;28;20073;-40
2024/02/20 05:26:46;;;;;;;0.00;0.00;;;2.60;99.90;;;;;;20522326;28;20167;-40
2024/02/20 05:36:48;;;;;;;1.45;0.00;;;2.50;99.90;;;;;;20521182;28;20155;-41
2024/02/20 05:46:49;;;;;;;0.20;0.00;;;2.40;99.90;;;;;;20520753;28;20180;-41
2024/02/20 05:56:51;;;;;;;0.13;0.00;;;2.50;99.90;;;;;;20528846;28;20144;-41
2024/02/20 06:06:53;;;;;;;0.00;0.00;;;2.40;99.90;;;;;;20530606;28;20589;-43
2024/02/20 06:16:55;;;;;;;0.25;0.00;;;2.10;99.90;;;;;;20532160;28;20156;-41
2024/02/20 06:26:56;;;;;;;0.20;0.10;;;2.30;99.90;;;;;;20532330;28;20102;-40
2024/02/20 06:36:58;;;;;;;0.15;0.00;;;2.80;99.90;;;;;;20527843;28;20182;-41
2024/02/20 06:47:01;;;;;;;0.88;0.13;;;3.30;99.90;;;;;;20523689;28;20131;-41
2024/02/20 06:57:03;;;;;;;0.25;0.10;;;3.60;99.90;;;;;;20524271;28;20176;-43
2024/02/20 07:07:05;;;;;;;0.22;0.10;;;3.90;99.90;;;;;;20521190;28;20037;-41
2024/02/20 07:17:07;;;;;;;0.93;0.17;;;4.30;99.20;;;;;;20505073;28;20892;-41
2024/02/20 07:27:12;;;;;;;0.10;0.05;;;4.50;99.70;;;;;;20521968;28;20033;-40
2024/02/20 07:37:14;;;;;;;0.30;0.10;;;4.50;99.40;;;;;;20523893;28;20575;-40
2024/02/20 07:47:16;;;;;;;0.10;0.00;;;4.50;98.40;;;;;;20506518;28;20637;-42
2024/02/20 07:57:17;;;;;;;0.00;0.00;;;4.90;98.60;;;;;;20522829;28;20178;-41
2024/02/20 08:07:19;;;;;;;0.93;0.30;;;6.00;96.90;;;;;;20515752;28;20067;-44
2024/02/20 08:17:22;;;;;;;0.20;0.10;;;7.00;94.60;;;;;;20516019;28;20168;-42
2024/02/20 08:27:24;;;;;;;0.68;0.10;;;7.90;92.30;;;;;;20515621;28;20128;-43
2024/02/20 08:37:26;;;;;;;0.55;0.30;;;8.10;91.40;;;;;;20520271;28;20959;-44
2024/02/20 08:47:28;;;;;;;2.25;1.30;;;8.50;92.30;;;;;;20516873;28;20270;-44
2024/02/20 08:57:29;;;;;;;1.27;0.68;;;9.50;94.50;;;;;;20514256;28;20642;-44
2024/02/20 09:07:31;;;;;;;2.03;1.20;;;9.80;90.60;;;;;;20514361;28;20145;-45
2024/02/20 09:17:33;;;;;;;3.58;2.50;;;10.10;91.10;;;;;;20512931;28;20253;-43
2024/02/20 09:27:42;;;;;;;3.55;1.95;;;10.90;92.90;;;;;;20521188;28;20180;-44
2024/02/20 09:37:44;;;;;;;2.35;1.13;;;11.20;92.00;;;;;;20529950;28;20164;-44
2024/02/20 09:47:52;;;;;;;0.98;0.52;;;11.20;91.30;;;;;;20508474;28;20058;-42
2024/02/20 09:57:54;;;;;;;1.70;0.70;;;11.30;90.20;;;;;;20529145;28;21768;-42
2024/02/20 10:08:00;;;;;;;2.05;1.13;;;11.30;89.80;;;;;;20510142;28;20828;-43
2024/02/20 10:18:06;;;;;;;1.85;0.93;;;11.60;90.40;;;;;;20531279;28;20137;-42
2024/02/20 10:28:08;;;;;;;1.50;0.85;;;11.70;90.10;;;;;;20527278;28;20041;-43
2024/02/20 10:38:12;;;;;;;1.02;0.60;;;12.10;90.20;;;;;;20528100;28;21170;-51
2024/02/20 10:48:14;;;;;;;1.67;0.90;;;12.40;88.60;;;;;;20528335;28;20140;-43
2024/02/20 10:58:16;;;;;;;1.00;0.70;;;13.00;88.00;;;;;;20527216;28;20779;-42
2024/02/20 11:08:28;;;;;;;1.38;0.93;;;13.30;86.70;;;;;;20523215;28;20067;-42
2024/02/20 11:18:29;;;;;;;1.55;1.05;;;13.00;86.20;;;;;;20524034;28;20132;-43
2024/02/20 11:28:35;;;;;;;2.88;1.58;;;12.90;86.10;;;;;;20524359;28;20136;-42
2024/02/20 11:38:37;;;;;;;5.38;3.15;;;13.10;85.20;;;;;;20528336;28;20180;-42
2024/02/20 11:48:39;;;;;;;7.55;4.93;;;13.10;87.70;;;;;;20522614;28;20161;-42
2024/02/20 11:58:41;;;;;;;23.63;15.85;;;13.80;86.20;;;;;;20520226;28;20159;-43
2024/02/20 12:08:46;;;;;;;39.33;28.13;;;14.20;91.50;;;;;;20521253;28;20243;-41
2024/02/20 12:18:50;;;;;;;41.85;29.02;;;14.30;94.90;;;;;;20515828;28;20136;-42
2024/02/20 12:28:54;;;;;;;46.75;31.73;;;14.10;94.10;;;;;;20522920;28;20267;-41
2024/02/20 12:38:56;;;;;;;50.33;33.95;;;11.90;97.10;;;;;;20520421;28;20156;-41
2024/02/20 12:48:58;;;;;;;58.40;39.53;;;10.50;99.90;;;;;;20500497;28;20174;-41
2024/02/20 12:59:00;;;;;;;56.60;38.83;;;10.40;99.90;;;;;;20517437;28;20175;-41
2024/02/20 13:09:02;;;;;;;48.65;35.38;;;12.30;99.90;;;;;;20546842;28;20168;-41
2024/02/20 13:19:06;;;;;;;50.50;35.63;;;11.20;99.90;;;;;;20542847;28;20167;-41
2024/02/20 13:29:10;;;;;;;49.08;35.10;;;10.60;99.90;;;;;;20547845;28;20140;-43
2024/02/20 13:39:12;;;;;;;52.30;35.75;;;11.90;99.90;;;;;;20543528;28;20168;-41
2024/02/20 13:49:25;;;;;;;48.33;34.17;;;11.90;99.90;;;;;;20540952;28;20049;-44
2024/02/20 13:59:27;;;;;;;49.15;32.38;;;11.00;99.90;;;;;;20546660;28;20239;-41
2024/02/20 14:09:28;;;;;;;51.85;33.90;;;10.90;99.90;;;;;;20543125;28;21327;-40
2024/02/20 14:19:30;;;;;;;48.03;32.00;;;10.30;99.90;;;;;;20529212;28;20478;-41
2024/02/20 14:29:32;;;;;;;46.10;31.08;;;9.60;99.90;;;;;;20526447;28;20603;-42
2024/02/20 14:39:39;;;;;;;51.72;34.75;;;9.20;99.90;;;;;;20525624;28;21196;-43
2024/02/20 14:49:46;;;;;;;51.60;32.33;;;8.70;99.90;;;;;;20526402;28;20183;-42
2024/02/20 14:59:48;;;;;;;55.35;36.35;;;8.10;99.90;;;;;;20529247;28;20037;-43
2024/02/20 15:09:50;;;;;;;47.08;30.67;;;7.50;99.90;;;;;;20524612;28;20781;-43
2024/02/20 15:19:52;;;;;;;48.33;31.65;;;7.10;99.90;;;;;;20527352;28;20690;-40
2024/02/20 15:30:03;;;;;;;50.42;31.85;;;6.90;99.90;;;;;;20521479;28;20566;-40
2024/02/20 15:40:09;;;;;;;50.88;31.70;;;6.70;99.90;;;;;;20517939;28;20041;-41
2024/02/20 15:50:12;;;;;;;55.65;32.85;;;6.70;99.90;;;;;;20518584;28;20049;-40
2024/02/20 16:00:14;;;;;;;56.30;33.03;;;6.40;99.90;;;;;;20523315;28;20913;-42
2024/02/20 16:10:19;;;;;;;45.40;26.42;;;6.00;99.90;;;;;;20519476;28;20110;-41
2024/02/20 16:20:21;;;;;;;51.30;28.83;;;5.40;99.90;;;;;;20525452;28;20132;-40
2024/02/20 16:30:22;;;;;;;34.22;18.90;;;5.00;99.90;;;;;;20520332;28;20033;-40
2024/02/20 16:40:24;;;;;;;37.22;21.10;;;4.60;99.90;;;;;;20517068;28;20045;-42
2024/02/20 16:50:29;;;;;;;42.70;22.95;;;4.30;99.90;;;;;;20520044;28;20053;-40
2024/02/20 17:00:31;;;;;;;37.10;20.65;;;4.20;99.90;;;;;;20525858;28;21262;-40
2024/02/20 17:10:33;;;;;;;31.70;17.10;;;3.80;99.90;;;;;;20524474;28;20951;-49
2024/02/20 17:20:36;;;;;;;21.27;12.77;;;3.60;99.90;;;;;;20518175;28;20507;-41
2024/02/20 17:30:38;;;;;;;20.60;11.52;;;3.30;99.90;;;;;;20523137;28;20164;-40
2024/02/20 17:40:47;;;;;;;9.70;4.60;;;3.10;99.90;;;;;;20519396;28;20191;-41
2024/02/20 17:50:50;;;;;;;8.30;4.72;;;3.30;99.90;;;;;;20531404;28;20255;-42
2024/02/20 18:00:53;;;;;;;5.97;3.80;;;3.50;99.90;;;;;;20535086;28;20038;-42
2024/02/20 18:10:57;;;;;;;13.68;8.10;;;4.10;99.90;;;;;;20514729;28;20158;-40
2024/02/20 18:21:01;;;;;;;17.52;9.20;;;4.20;99.90;;;;;;20530211;28;20314;-41
2024/02/20 18:31:03;;;;;;;22.92;15.25;;;4.80;99.90;;;;;;20531196;28;20846;-41
2024/02/20 18:41:09;;;;;;;23.35;12.73;;;5.20;99.90;;;;;;20531007;28;20150;-41
2024/02/20 18:51:12;;;;;;;18.20;11.30;;;5.30;99.90;;;;;;20531565;28;20140;-42
2024/02/20 19:01:13;;;;;;;15.55;7.65;;;4.60;99.90;;;;;;20530964;28;20566;-41
2024/02/20 19:11:16;;;;;;;12.63;7.43;;;3.70;99.90;;;;;;20527638;28;20135;-42
2024/02/20 19:21:21;;;;;;;12.48;6.45;;;3.20;99.90;;;;;;20531306;28;20069;-44
2024/02/20 19:31:23;;;;;;;12.55;7.22;;;3.10;99.90;;;;;;20526316;28;20037;-40
2024/02/20 19:41:34;;;;;;;10.27;5.57;;;3.10;99.90;;;;;;20529016;28;20660;-42
2024/02/20 19:51:36;;;;;;;10.07;5.13;;;3.60;99.90;;;;;;20525080;28;20191;-40
2024/02/20 20:01:43;;;;;;;11.32;6.03;;;3.80;99.50;;;;;;20527143;28;20156;-42
2024/02/20 20:11:45;;;;;;;7.32;3.88;;;3.80;98.40;;;;;;20521562;28;20235;-41
2024/02/20 20:21:48;;;;;;;8.07;3.78;;;4.10;96.50;;;;;;20524244;28;20791;-43
2024/02/20 20:31:55;;;;;;;3.20;1.92;;;4.10;94.10;;;;;;20526130;28;20167;-41
2024/02/20 20:41:58;;;;;;;2.78;0.98;;;4.10;91.70;;;;;;20527063;28;20183;-41
2024/02/20 20:52:00;;;;;;;1.55;0.50;;;3.70;90.60;;;;;;20519464;28;20151;-40
2024/02/20 21:02:03;;;;;;;0.95;0.52;;;3.70;88.60;;;;;;20521523;28;20866;-40
2024/02/20 21:12:05;;;;;;;1.15;0.50;;;3.80;86.50;;;;;;20505702;28;21234;-41
2024/02/20 21:22:06;;;;;;;1.33;0.30;;;3.80;84.50;;;;;;20524945;28;20060;-41
2024/02/20 21:32:08;;;;;;;0.68;0.20;;;3.80;85.60;;;;;;20536598;28;20797;-40
2024/02/20 21:42:10;;;;;;;1.00;0.20;;;3.70;83.10;;;;;;20534684;28;20176;-40
2024/02/20 21:52:12;;;;;;;0.40;0.10;;;3.90;81.00;;;;;;20515456;28;20062;-41
2024/02/20 22:02:13;;;;;;;0.10;0.10;;;3.80;79.30;;;;;;20538151;28;20084;-42
2024/02/20 22:12:15;;;;;;;0.20;0.10;;;3.50;80.40;;;;;;20534181;28;20400;-40
2024/02/20 22:22:20;;;;;;;1.45;0.10;;;3.50;79.10;;;;;;20533273;28;20151;-41
2024/02/20 22:32:22;;;;;;;0.20;0.10;;;3.50;80.50;;;;;;20533038;28;20122;-44
2024/02/20 22:42:24;;;;;;;1.60;0.10;;;3.50;79.90;;;;;;20533104;28;20117;-41
2024/02/20 22:52:25;;;;;;;1.02;0.30;;;3.50;79.80;;;;;;20532174;28;20200;-43
2024/02/20 23:02:27;;;;;;;0.50;0.20;;;3.40;79.40;;;;;;20527887;28;20298;-42
2024/02/20 23:12:29;;;;;;;0.20;0.10;;;3.40;80.20;;;;;;20531067;28;20164;-44
2024/02/20 23:22:30;;;;;;;0.82;0.20;;;3.30;80.40;;;;;;20528914;28;21109;-40
2024/02/20 23:32:32;;;;;;;0.57;0.10;;;3.10;81.00;;;;;;20526498;28;20046;-43
2024/02/20 23:42:34;;;;;;;0.60;0.22;;;2.80;81.80;;;;;;20528008;28;20065;-43
2024/02/20 23:52:35;;;;;;;0.95;0.30;;;2.50;84.00;;;;;;20525766;28;20091;-42
